Time;durP1;ratioP1;P1;durP2;ratioP2;P2;SDS_P1;SDS_P2;PMS_P1;PMS_P2;Temp;Humidity;BMP_temperature;BMP_pressure;BME280_temperature;BME280_humidity;BME280_pressure;Samples;Min_cycle;Max_cycle;Signal;HPM_P1;HPM_P2
2022/08/06 00:02:20;;;;;;;0.80;0.80;;;19.00;84.20;;;;;;5069292;28;20671;-81
2022/08/06 00:04:48;;;;;;;0.93;0.80;;;19.10;83.90;;;;;;5069182;28;21050;-82
2022/08/06 00:07:15;;;;;;;1.40;1.30;;;19.10;83.90;;;;;;5076438;28;20981;-82
2022/08/06 00:09:44;;;;;;;1.00;0.90;;;19.20;82.90;;;;;;5068357;28;20646;-82
2022/08/06 00:12:13;;;;;;;3.27;1.73;;;19.20;83.50;;;;;;5077080;28;21249;-82
2022/08/06 00:14:40;;;;;;;0.90;0.80;;;19.50;83.20;;;;;;5088916;28;20742;-81
2022/08/06 00:17:09;;;;;;;1.20;1.10;;;19.40;82.30;;;;;;5070687;28;20637;-81
2022/08/06 00:19:36;;;;;;;1.23;1.13;;;19.50;82.90;;;;;;5074750;28;20625;-82
2022/08/06 00:22:04;;;;;;;0.97;0.93;;;19.50;83.40;;;;;;5074664;28;20687;-82
2022/08/06 00:24:32;;;;;;;1.53;1.13;;;19.40;83.10;;;;;;5071437;28;20806;-81
2022/08/06 00:27:00;;;;;;;1.80;1.10;;;19.30;82.90;;;;;;5089369;28;21092;-82
2022/08/06 00:29:27;;;;;;;1.47;1.37;;;19.40;82.70;;;;;;5082561;28;20618;-81
2022/08/06 00:31:54;;;;;;;1.30;1.20;;;19.50;82.30;;;;;;5080361;28;20763;-82
2022/08/06 00:34:21;;;;;;;0.93;0.87;;;19.40;81.80;;;;;;5086181;28;20625;-82
2022/08/06 00:36:50;;;;;;;1.97;1.30;;;19.30;82.10;;;;;;5087512;28;20625;-81
2022/08/06 00:39:20;;;;;;;1.30;1.20;;;19.30;82.70;;;;;;5074047;28;20625;-81
2022/08/06 00:41:47;;;;;;;1.13;1.10;;;19.30;82.30;;;;;;5073425;28;20620;-81
2022/08/06 00:44:15;;;;;;;0.90;0.90;;;19.40;81.90;;;;;;5068244;28;20628;-81
2022/08/06 00:46:43;;;;;;;1.10;1.00;;;19.20;81.10;;;;;;5068914;28;20687;-83
2022/08/06 00:49:11;;;;;;;0.90;0.90;;;19.30;81.50;;;;;;5079431;28;20621;-81
2022/08/06 00:51:40;;;;;;;1.97;1.00;;;19.50;82.90;;;;;;5083149;28;20669;-81
2022/08/06 00:54:08;;;;;;;1.70;1.30;;;19.50;82.60;;;;;;5067419;28;20660;-82
2022/08/06 00:56:36;;;;;;;1.30;1.20;;;19.30;82.50;;;;;;5079422;28;20718;-82
2022/08/06 00:59:05;;;;;;;1.20;1.10;;;19.30;82.70;;;;;;5072088;28;20640;-81
2022/08/06 01:01:32;;;;;;;1.27;1.13;;;19.40;80.90;;;;;;5087266;28;20620;-81
2022/08/06 01:04:00;;;;;;;1.60;1.50;;;19.20;80.10;;;;;;5078070;28;20653;-81
2022/08/06 01:06:27;;;;;;;1.17;1.00;;;19.30;80.60;;;;;;5072648;28;20622;-82
2022/08/06 01:08:54;;;;;;;1.30;1.20;;;19.20;79.50;;;;;;5069605;28;20606;-81
2022/08/06 01:11:21;;;;;;;1.03;0.93;;;19.10;79.90;;;;;;5081889;28;20645;-81
2022/08/06 01:13:49;;;;;;;1.63;1.03;;;19.10;81.30;;;;;;5076931;28;20661;-81
2022/08/06 01:16:23;;;;;;;2.67;1.33;;;19.20;80.20;;;;;;5087676;28;20620;-82
2022/08/06 01:18:59;;;;;;;2.80;1.00;;;19.20;79.30;;;;;;5086172;28;20740;-81
2022/08/06 01:21:59;;;;;;;1.13;1.03;;;19.20;78.20;;;;;;5084367;28;20629;-81
2022/08/06 01:25:02;;;;;;;1.03;0.93;;;19.20;77.90;;;;;;5068545;28;20641;-83
2022/08/06 01:27:39;;;;;;;0.80;0.80;;;19.20;77.20;;;;;;5079337;28;21198;-81
2022/08/06 01:30:09;;;;;;;0.90;0.90;;;19.30;78.70;;;;;;5085089;28;20710;-81
2022/08/06 01:32:41;;;;;;;0.80;0.80;;;19.20;77.20;;;;;;5078804;28;20656;-81
2022/08/06 01:35:13;;;;;;;0.93;0.83;;;19.20;77.00;;;;;;5072208;28;20624;-82
2022/08/06 01:37:49;;;;;;;1.20;1.07;;;19.30;75.70;;;;;;5067602;28;21419;-81
2022/08/06 01:40:22;;;;;;;0.70;0.70;;;19.20;76.90;;;;;;5071974;28;20616;-81
2022/08/06 01:42:54;;;;;;;0.97;0.90;;;19.20;76.50;;;;;;5083259;28;21220;-82
2022/08/06 01:45:24;;;;;;;1.00;1.00;;;19.20;75.10;;;;;;5085578;28;20705;-81
2022/08/06 01:47:57;;;;;;;2.00;1.80;;;19.30;75.50;;;;;;5088034;28;20629;-82
2022/08/06 01:50:29;;;;;;;1.87;1.77;;;19.20;75.80;;;;;;5077987;28;20653;-81
2022/08/06 01:52:59;;;;;;;1.20;0.90;;;19.10;75.90;;;;;;5068978;28;20669;-81
2022/08/06 01:55:30;;;;;;;1.00;0.90;;;19.10;76.70;;;;;;5068232;28;20629;-81
2022/08/06 01:58:02;;;;;;;1.33;1.00;;;18.90;75.30;;;;;;5067234;28;20711;-81
2022/08/06 02:00:30;;;;;;;1.43;1.17;;;18.80;75.50;;;;;;5074916;28;20708;-81
2022/08/06 02:03:00;;;;;;;1.03;0.90;;;18.90;76.30;;;;;;5068081;28;20648;-82
2022/08/06 02:05:29;;;;;;;0.83;0.83;;;18.80;76.80;;;;;;5067680;28;20675;-81
2022/08/06 02:07:58;;;;;;;1.37;1.17;;;19.00;76.00;;;;;;5080328;28;20670;-81
2022/08/06 02:10:28;;;;;;;1.70;1.57;;;18.90;76.00;;;;;;5077935;28;20625;-81
2022/08/06 02:12:55;;;;;;;0.63;0.63;;;18.70;75.40;;;;;;5075012;28;20653;-81
2022/08/06 02:15:27;;;;;;;2.00;0.97;;;18.70;74.90;;;;;;5087236;28;20708;-81
2022/08/06 02:17:59;;;;;;;4.53;1.60;;;18.70;75.60;;;;;;5074530;28;20627;-81
2022/08/06 02:20:29;;;;;;;1.10;1.00;;;18.70;75.90;;;;;;5065884;28;20636;-80
2022/08/06 02:22:57;;;;;;;0.70;0.70;;;18.70;75.40;;;;;;5077924;28;21171;-80
2022/08/06 02:25:26;;;;;;;0.80;0.80;;;18.80;76.20;;;;;;5067293;28;20617;-82
2022/08/06 02:27:55;;;;;;;1.10;1.00;;;18.80;76.00;;;;;;5067140;28;20629;-81
2022/08/06 02:30:25;;;;;;;0.80;0.80;;;18.80;75.30;;;;;;5067377;28;20610;-81
2022/08/06 02:32:52;;;;;;;1.03;1.03;;;18.80;75.50;;;;;;5082139;28;20763;-82
2022/08/06 02:35:19;;;;;;;1.20;1.10;;;18.80;74.80;;;;;;5078771;28;20701;-81
2022/08/06 02:37:50;;;;;;;1.30;1.10;;;19.00;74.90;;;;;;5066802;28;20640;-82
2022/08/06 02:40:22;;;;;;;1.30;1.03;;;18.80;75.00;;;;;;5085902;28;20625;-81
2022/08/06 02:42:55;;;;;;;1.60;1.17;;;18.70;75.50;;;;;;5065717;28;20732;-80
2022/08/06 02:45:28;;;;;;;0.80;0.80;;;18.70;75.80;;;;;;5065925;28;20632;-81
2022/08/06 02:48:02;;;;;;;1.67;1.00;;;18.70;74.70;;;;;;5065892;28;20624;-81
2022/08/06 02:50:35;;;;;;;1.37;1.30;;;18.60;75.40;;;;;;5067384;28;20695;-81
2022/08/06 02:53:04;;;;;;;1.03;1.03;;;18.60;76.00;;;;;;5066417;28;21028;-81
2022/08/06 02:55:33;;;;;;;1.70;1.10;;;18.30;76.10;;;;;;5066762;28;20629;-81
2022/08/06 02:58:08;;;;;;;1.30;1.20;;;18.30;76.80;;;;;;5066668;28;20614;-81
2022/08/06 03:00:40;;;;;;;1.10;0.90;;;18.30;75.30;;;;;;5066328;28;21454;-81
2022/08/06 03:03:09;;;;;;;1.20;1.10;;;18.70;76.10;;;;;;5066319;28;20629;-81
2022/08/06 03:05:38;;;;;;;1.57;1.40;;;18.50;76.30;;;;;;5066343;28;20636;-81
2022/08/06 03:08:07;;;;;;;1.17;1.07;;;18.60;76.10;;;;;;5066117;28;21182;-81
2022/08/06 03:10:35;;;;;;;1.43;1.20;;;18.60;75.90;;;;;;5066476;28;20618;-82
2022/08/06 03:13:05;;;;;;;1.30;1.00;;;18.70;75.10;;;;;;5065413;28;20661;-82
2022/08/06 03:15:34;;;;;;;0.80;0.77;;;18.60;75.20;;;;;;5066661;28;20629;-81
2022/08/06 03:18:04;;;;;;;1.23;1.10;;;18.70;76.40;;;;;;5066778;28;21350;-81
2022/08/06 03:20:32;;;;;;;1.40;1.30;;;18.60;76.20;;;;;;5066877;28;20714;-82
2022/08/06 03:23:01;;;;;;;0.87;0.87;;;18.90;76.70;;;;;;5065973;28;21121;-81
2022/08/06 03:25:29;;;;;;;0.73;0.70;;;18.70;77.20;;;;;;5065799;28;20725;-82
2022/08/06 03:27:58;;;;;;;0.90;0.90;;;18.50;77.30;;;;;;5069008;28;20648;-81
2022/08/06 03:30:26;;;;;;;1.10;0.97;;;18.50;77.30;;;;;;5069570;28;20617;-81
2022/08/06 03:32:55;;;;;;;1.10;1.00;;;18.50;77.30;;;;;;5069100;28;20657;-82
2022/08/06 03:35:24;;;;;;;1.23;1.00;;;18.40;78.00;;;;;;5069531;28;20621;-81
2022/08/06 03:37:53;;;;;;;1.17;1.07;;;18.40;77.70;;;;;;5082672;28;20654;-81
2022/08/06 03:40:21;;;;;;;1.47;1.37;;;18.30;78.20;;;;;;5070499;28;20721;-81
2022/08/06 03:42:48;;;;;;;0.80;0.80;;;18.20;78.60;;;;;;5088880;28;21353;-82
2022/08/06 03:45:15;;;;;;;1.30;1.20;;;18.20;78.60;;;;;;5087850;28;20644;-81
2022/08/06 03:47:44;;;;;;;1.03;0.93;;;18.20;78.50;;;;;;5077738;28;20666;-81
2022/08/06 03:50:13;;;;;;;0.97;0.97;;;18.30;78.40;;;;;;5089574;28;20648;-82
2022/08/06 03:52:46;;;;;;;1.00;0.90;;;18.40;77.80;;;;;;5073243;28;20751;-81
2022/08/06 03:55:16;;;;;;;1.47;1.40;;;18.30;78.20;;;;;;5071105;28;20634;-81
2022/08/06 03:57:47;;;;;;;0.60;0.60;;;18.40;78.70;;;;;;5090090;28;20630;-82
2022/08/06 04:00:16;;;;;;;6.20;1.57;;;18.40;78.20;;;;;;5070804;28;21058;-81
2022/08/06 04:02:45;;;;;;;1.00;0.90;;;18.40;77.90;;;;;;5084401;28;20632;-82
2022/08/06 04:05:15;;;;;;;1.70;1.60;;;18.40;77.90;;;;;;5087884;28;21039;-81
2022/08/06 04:07:44;;;;;;;0.77;0.77;;;18.20;77.80;;;;;;5089873;28;21351;-81
2022/08/06 04:10:12;;;;;;;3.93;1.13;;;18.20;78.50;;;;;;5071656;28;20649;-81
2022/08/06 04:12:39;;;;;;;1.30;1.20;;;18.00;79.30;;;;;;5082916;28;20688;-82
2022/08/06 04:15:08;;;;;;;1.60;1.50;;;18.10;79.40;;;;;;5082739;28;20652;-81
2022/08/06 04:17:38;;;;;;;1.13;1.03;;;18.00;79.90;;;;;;5069302;28;21016;-81
2022/08/06 04:20:07;;;;;;;1.20;1.10;;;18.10;78.80;;;;;;5087748;28;21050;-82
2022/08/06 04:22:34;;;;;;;2.50;1.13;;;18.10;78.80;;;;;;5077557;28;20729;-81
2022/08/06 04:25:03;;;;;;;1.40;1.30;;;18.00;79.10;;;;;;5082040;28;20652;-81
2022/08/06 04:27:31;;;;;;;0.90;0.90;;;18.10;80.10;;;;;;5089609;28;20601;-81
2022/08/06 04:30:01;;;;;;;1.23;1.10;;;18.10;80.70;;;;;;5072191;28;21217;-81
2022/08/06 04:32:29;;;;;;;1.00;1.00;;;18.10;81.20;;;;;;5083666;28;21554;-81
2022/08/06 04:34:57;;;;;;;1.20;1.20;;;18.10;80.50;;;;;;5073420;28;20716;-82
2022/08/06 04:37:25;;;;;;;3.53;0.93;;;18.10;80.80;;;;;;5068860;28;20717;-81
2022/08/06 04:39:52;;;;;;;0.77;0.77;;;17.90;80.80;;;;;;5070245;28;21029;-82
2022/08/06 04:42:20;;;;;;;1.30;1.20;;;17.90;80.90;;;;;;5068955;28;20628;-82
2022/08/06 04:44:48;;;;;;;1.13;1.03;;;18.00;80.10;;;;;;5088572;28;20620;-81
2022/08/06 04:47:16;;;;;;;1.10;1.00;;;18.10;79.90;;;;;;5086952;28;20654;-81
2022/08/06 04:49:43;;;;;;;1.73;1.63;;;18.10;79.50;;;;;;5088686;28;21073;-81
2022/08/06 04:52:21;;;;;;;1.00;0.93;;;18.10;79.60;;;;;;5086155;28;20740;-81
2022/08/06 04:54:48;;;;;;;1.03;1.03;;;17.90;79.60;;;;;;5069559;28;20629;-81
2022/08/06 04:57:15;;;;;;;0.80;0.80;;;18.10;80.40;;;;;;5079004;28;20712;-81
2022/08/06 04:59:43;;;;;;;2.00;1.10;;;18.00;80.50;;;;;;5079048;28;20715;-81
2022/08/06 05:02:10;;;;;;;1.07;1.07;;;18.00;80.40;;;;;;5076652;28;20617;-82
2022/08/06 05:04:38;;;;;;;1.10;1.03;;;18.00;79.50;;;;;;5076068;28;21337;-84
2022/08/06 05:07:11;;;;;;;1.30;1.20;;;18.00;80.10;;;;;;5079631;28;20625;-83
2022/08/06 05:09:38;;;;;;;1.07;1.00;;;18.00;81.10;;;;;;5075959;28;20644;-84
2022/08/06 05:12:09;;;;;;;1.40;1.30;;;18.10;81.40;;;;;;5079394;28;20612;-83
2022/08/06 05:14:39;;;;;;;0.93;0.90;;;18.20;81.20;;;;;;5074694;28;20656;-83
2022/08/06 05:17:11;;;;;;;1.30;1.13;;;18.00;81.40;;;;;;5081690;28;20621;-83
2022/08/06 05:19:45;;;;;;;1.57;1.47;;;17.90;81.40;;;;;;5074602;28;20628;-83
2022/08/06 05:22:16;;;;;;;0.93;0.93;;;17.90;81.80;;;;;;5080505;28;21355;-83
2022/08/06 05:24:44;;;;;;;1.30;1.20;;;17.80;81.80;;;;;;5077711;28;20719;-83
2022/08/06 05:27:11;;;;;;;0.97;0.97;;;17.90;81.60;;;;;;5081719;28;20674;-82
2022/08/06 05:29:40;;;;;;;1.30;1.20;;;17.90;81.20;;;;;;5077099;28;20620;-83
2022/08/06 05:32:08;;;;;;;1.83;1.50;;;17.90;81.30;;;;;;5079510;28;20646;-82
2022/08/06 05:34:35;;;;;;;1.50;1.43;;;17.90;81.80;;;;;;5076688;28;20624;-83
2022/08/06 05:37:02;;;;;;;1.17;1.07;;;18.00;82.20;;;;;;5075544;28;20659;-83
2022/08/06 05:39:29;;;;;;;1.77;1.60;;;18.00;82.10;;;;;;5073833;28;20682;-83
2022/08/06 05:41:56;;;;;;;1.20;1.20;;;17.90;82.70;;;;;;5075061;28;20625;-83
2022/08/06 05:44:24;;;;;;;1.07;0.97;;;17.80;82.70;;;;;;5083468;28;20777;-83
2022/08/06 05:46:52;;;;;;;3.00;1.47;;;17.70;81.90;;;;;;5073827;28;21210;-83
2022/08/06 05:49:25;;;;;;;1.93;1.60;;;17.90;82.40;;;;;;5075660;28;20626;-83
2022/08/06 05:51:58;;;;;;;1.23;1.13;;;17.90;82.90;;;;;;5085690;28;20733;-83
2022/08/06 05:54:32;;;;;;;1.13;1.10;;;17.90;83.90;;;;;;5083104;28;20664;-82
2022/08/06 05:57:07;;;;;;;1.37;1.27;;;17.90;82.60;;;;;;5084315;28;21033;-83
2022/08/06 05:59:38;;;;;;;1.27;1.03;;;18.00;82.70;;;;;;5083678;28;21110;-83
2022/08/06 06:02:07;;;;;;;1.50;1.40;;;18.00;83.40;;;;;;5077907;28;20717;-83
2022/08/06 06:04:36;;;;;;;2.90;1.70;;;18.30;82.70;;;;;;5072585;28;21218;-84
2022/08/06 06:07:03;;;;;;;1.77;1.50;;;18.20;83.00;;;;;;5086760;28;21217;-83
2022/08/06 06:09:31;;;;;;;2.30;1.30;;;18.40;82.90;;;;;;5083578;28;21581;-83
2022/08/06 06:12:00;;;;;;;1.17;1.10;;;18.40;83.00;;;;;;5068563;28;20625;-83
2022/08/06 06:14:33;;;;;;;1.20;1.10;;;18.20;83.40;;;;;;5076115;28;20659;-83
2022/08/06 06:17:22;;;;;;;0.90;0.83;;;18.30;83.50;;;;;;5104042;28;20714;-83
2022/08/06 06:20:00;;;;;;;1.17;1.10;;;18.30;84.00;;;;;;5085332;28;20751;-82
2022/08/06 06:22:35;;;;;;;1.60;1.50;;;18.50;82.80;;;;;;5077328;28;20861;-83
2022/08/06 06:25:07;;;;;;;1.80;1.30;;;18.50;83.10;;;;;;5080753;28;20277;-82
2022/08/06 06:27:43;;;;;;;1.23;1.20;;;18.60;82.60;;;;;;5087520;28;21304;-83
2022/08/06 06:30:16;;;;;;;1.30;1.20;;;18.40;83.40;;;;;;5088212;28;20626;-83
2022/08/06 06:32:48;;;;;;;1.30;1.20;;;18.50;83.10;;;;;;5067495;28;20747;-83
2022/08/06 06:35:28;;;;;;;1.50;1.40;;;18.80;82.90;;;;;;5080045;28;20693;-83
2022/08/06 06:38:03;;;;;;;1.27;1.00;;;18.80;82.50;;;;;;5087263;28;20678;-83
2022/08/06 06:40:42;;;;;;;1.10;1.00;;;18.90;81.80;;;;;;5074201;28;20682;-83
2022/08/06 06:43:14;;;;;;;1.40;1.30;;;18.80;81.50;;;;;;5079450;28;20624;-82
2022/08/06 06:45:49;;;;;;;1.30;1.00;;;19.00;82.00;;;;;;5080985;28;20629;-83
2022/08/06 06:48:20;;;;;;;1.10;1.10;;;19.20;80.50;;;;;;5075510;28;20676;-82
2022/08/06 06:50:53;;;;;;;2.10;1.90;;;19.20;78.70;;;;;;5067779;28;20977;-82
2022/08/06 06:53:21;;;;;;;1.30;1.20;;;19.20;80.90;;;;;;5086658;28;20740;-82
2022/08/06 06:55:51;;;;;;;1.30;1.03;;;19.10;80.50;;;;;;5067981;28;20653;-83
2022/08/06 06:58:37;;;;;;;2.70;1.50;;;18.90;81.20;;;;;;5072179;28;21022;-83
2022/08/06 07:01:06;;;;;;;1.23;1.13;;;18.90;81.70;;;;;;5088977;28;20635;-82
2022/08/06 07:03:35;;;;;;;2.00;1.83;;;19.10;80.60;;;;;;5073200;28;20668;-83
2022/08/06 07:06:08;;;;;;;1.50;1.40;;;19.20;81.40;;;;;;5071045;28;20687;-83
2022/08/06 07:08:41;;;;;;;1.60;1.50;;;19.10;80.70;;;;;;5088141;28;20634;-82
2022/08/06 07:11:08;;;;;;;1.50;1.40;;;19.20;81.10;;;;;;5079812;28;20735;-83
2022/08/06 07:13:38;;;;;;;1.57;1.47;;;19.50;81.30;;;;;;5084389;28;20695;-82
2022/08/06 07:16:06;;;;;;;1.93;1.50;;;19.70;79.70;;;;;;5081782;28;20631;-83
2022/08/06 07:18:34;;;;;;;1.10;1.00;;;19.70;78.60;;;;;;5083778;28;21479;-83
2022/08/06 07:21:04;;;;;;;2.00;1.20;;;19.30;80.90;;;;;;5084777;28;20675;-83
2022/08/06 07:23:32;;;;;;;0.90;0.90;;;19.30;81.10;;;;;;5088312;28;20627;-83
2022/08/06 07:26:01;;;;;;;1.70;1.60;;;19.30;80.00;;;;;;5087764;28;21085;-83
2022/08/06 07:28:30;;;;;;;1.57;1.30;;;19.50;80.20;;;;;;5085753;28;20731;-84
2022/08/06 07:30:59;;;;;;;1.50;1.37;;;19.60;80.60;;;;;;5077211;28;20652;-83
2022/08/06 07:33:27;;;;;;;1.90;1.70;;;20.90;83.00;;;;;;5084128;28;20664;-82
2022/08/06 07:35:55;;;;;;;1.40;1.30;;;19.40;80.80;;;;;;5069945;28;20691;-83
2022/08/06 07:38:28;;;;;;;0.90;0.90;;;19.90;80.40;;;;;;5081315;28;20632;-82
2022/08/06 07:41:02;;;;;;;1.53;1.43;;;20.10;79.80;;;;;;5089029;28;20640;-83
2022/08/06 07:43:36;;;;;;;1.40;1.30;;;19.90;79.40;;;;;;5088476;28;20656;-82
2022/08/06 07:46:07;;;;;;;2.90;1.47;;;19.80;78.60;;;;;;5084603;28;21560;-82
2022/08/06 07:48:38;;;;;;;1.60;1.50;;;20.00;78.60;;;;;;5084815;28;20617;-83
2022/08/06 07:51:06;;;;;;;1.70;1.60;;;20.10;77.10;;;;;;5073892;28;20656;-83
2022/08/06 07:53:36;;;;;;;1.40;1.30;;;20.20;79.30;;;;;;5086344;28;20718;-84
2022/08/06 07:56:05;;;;;;;1.30;1.20;;;19.80;79.50;;;;;;5081221;28;20625;-83
2022/08/06 07:58:34;;;;;;;1.63;1.53;;;19.70;79.50;;;;;;5086939;28;20641;-83
2022/08/06 08:01:02;;;;;;;1.50;1.40;;;19.80;79.50;;;;;;5081542;28;20625;-83
2022/08/06 08:06:21;;;;;;;2.27;1.70;;;20.20;77.90;;;;;;5079758;28;20610;-83
2022/08/06 08:08:51;;;;;;;4.43;1.70;;;20.40;78.10;;;;;;5080252;28;20633;-82
2022/08/06 08:11:19;;;;;;;1.47;1.37;;;20.20;78.90;;;;;;5080958;28;20613;-83
2022/08/06 08:13:46;;;;;;;1.97;1.87;;;20.30;79.90;;;;;;5079608;28;20693;-83
2022/08/06 08:16:15;;;;;;;1.87;1.60;;;19.90;79.20;;;;;;5074454;28;20624;-83
2022/08/06 08:18:42;;;;;;;1.40;1.30;;;20.00;79.00;;;;;;5076814;28;21155;-83
2022/08/06 08:21:10;;;;;;;1.50;1.33;;;20.50;78.10;;;;;;5086109;28;20621;-82
2022/08/06 08:23:40;;;;;;;3.63;1.30;;;20.30;78.20;;;;;;5083971;28;20621;-83
2022/08/06 08:26:08;;;;;;;1.60;1.43;;;20.00;77.60;;;;;;5088121;28;20620;-82
2022/08/06 08:28:35;;;;;;;2.27;1.40;;;20.00;77.60;;;;;;5071520;28;20729;-83
2022/08/06 08:31:03;;;;;;;1.70;1.60;;;19.50;77.80;;;;;;5072169;28;20625;-83
2022/08/06 08:33:31;;;;;;;1.33;1.23;;;19.60;77.50;;;;;;5070771;28;21201;-84
2022/08/06 08:35:58;;;;;;;1.33;1.23;;;19.90;77.20;;;;;;5073589;28;20629;-83
2022/08/06 08:38:24;;;;;;;1.67;1.57;;;19.80;77.60;;;;;;5073630;28;20671;-82
2022/08/06 08:40:54;;;;;;;2.60;1.90;;;19.40;78.70;;;;;;5075302;28;21071;-80
2022/08/06 08:43:26;;;;;;;1.53;1.43;;;19.50;80.10;;;;;;5067861;28;21436;-82
2022/08/06 08:45:54;;;;;;;1.77;1.57;;;19.00;79.40;;;;;;5074757;28;20976;-82
2022/08/06 08:48:27;;;;;;;1.70;1.57;;;19.20;79.10;;;;;;5076378;28;20650;-81
2022/08/06 08:50:57;;;;;;;2.80;1.60;;;19.40;79.60;;;;;;5079202;28;20620;-82
2022/08/06 08:53:33;;;;;;;2.03;1.80;;;19.30;78.90;;;;;;5073901;28;20646;-83
2022/08/06 08:56:02;;;;;;;1.50;1.27;;;19.40;79.80;;;;;;5074700;28;20639;-83
2022/08/06 08:58:36;;;;;;;2.03;1.93;;;19.40;79.70;;;;;;5072097;28;20647;-82
2022/08/06 09:01:06;;;;;;;1.63;1.53;;;19.50;78.20;;;;;;5082479;28;20617;-83
2022/08/06 09:03:35;;;;;;;1.60;1.23;;;19.60;77.50;;;;;;5069737;28;20629;-82
2022/08/06 09:06:03;;;;;;;2.27;2.07;;;19.50;77.60;;;;;;5068860;28;20962;-82
2022/08/06 09:08:31;;;;;;;1.67;1.50;;;19.70;77.60;;;;;;5075984;28;20617;-83
2022/08/06 09:10:59;;;;;;;2.10;1.90;;;20.30;74.30;;;;;;5075428;28;20636;-80
2022/08/06 09:13:26;;;;;;;1.60;1.43;;;20.50;73.80;;;;;;5080379;28;20663;-83
2022/08/06 09:15:55;;;;;;;1.77;1.67;;;20.30;72.50;;;;;;5083031;28;20727;-82
2022/08/06 09:18:24;;;;;;;1.60;1.50;;;20.60;73.00;;;;;;5082520;28;20631;-83
2022/08/06 09:20:52;;;;;;;1.47;1.37;;;20.90;73.00;;;;;;5066512;28;20716;-82
2022/08/06 09:23:19;;;;;;;1.70;1.60;;;21.10;71.00;;;;;;5073162;28;20717;-82
2022/08/06 09:25:47;;;;;;;2.37;2.17;;;21.20;70.20;;;;;;5069115;28;20625;-82
2022/08/06 09:28:29;;;;;;;1.97;1.77;;;21.40;72.10;;;;;;5070197;28;20625;-83
2022/08/06 09:31:03;;;;;;;1.73;1.63;;;21.80;69.20;;;;;;5078905;28;20638;-82
2022/08/06 09:33:31;;;;;;;1.60;1.50;;;21.80;68.00;;;;;;5066558;28;20628;-83
2022/08/06 09:36:00;;;;;;;1.57;1.47;;;21.70;67.90;;;;;;5084121;28;20991;-83
2022/08/06 09:38:28;;;;;;;2.70;1.70;;;21.40;67.90;;;;;;5082645;28;20626;-82
2022/08/06 09:41:09;;;;;;;1.93;1.80;;;21.70;68.40;;;;;;5069917;28;21279;-83
2022/08/06 09:43:37;;;;;;;1.83;1.70;;;21.30;71.20;;;;;;5070542;28;20644;-83
2022/08/06 09:46:07;;;;;;;1.70;1.60;;;21.70;69.50;;;;;;5075804;28;20668;-83
2022/08/06 09:48:34;;;;;;;2.00;1.90;;;22.00;68.00;;;;;;5086128;28;20621;-82
2022/08/06 09:51:01;;;;;;;1.80;1.70;;;22.40;68.40;;;;;;5085968;28;21068;-83
2022/08/06 09:53:28;;;;;;;3.90;2.10;;;22.60;67.70;;;;;;5082291;28;21283;-82
2022/08/06 09:55:56;;;;;;;1.87;1.57;;;22.60;64.80;;;;;;5079946;28;20644;-83
2022/08/06 09:58:33;;;;;;;1.60;1.50;;;22.50;66.00;;;;;;5080472;28;20722;-85
2022/08/06 10:01:13;;;;;;;1.47;1.37;;;22.60;66.00;;;;;;5065192;28;20632;-85
2022/08/06 10:03:41;;;;;;;2.00;1.90;;;22.50;65.90;;;;;;5063008;28;20728;-85
2022/08/06 10:06:10;;;;;;;2.17;1.90;;;22.50;64.70;;;;;;5063003;28;20728;-85
2022/08/06 10:08:37;;;;;;;1.83;1.73;;;22.60;64.20;;;;;;5064322;28;20667;-84
2022/08/06 10:11:04;;;;;;;2.97;1.87;;;22.50;63.20;;;;;;5065416;28;20659;-84
2022/08/06 10:13:34;;;;;;;2.20;1.97;;;22.40;65.60;;;;;;5065186;28;21238;-85
2022/08/06 10:16:15;;;;;;;1.80;1.70;;;22.10;62.90;;;;;;5066363;28;21175;-84
2022/08/06 10:18:46;;;;;;;1.70;1.60;;;22.30;63.50;;;;;;5066835;28;20656;-85
2022/08/06 10:21:14;;;;;;;2.07;1.97;;;22.30;64.90;;;;;;5067541;28;20614;-85
2022/08/06 10:23:44;;;;;;;1.77;1.67;;;22.80;65.40;;;;;;5066931;28;20724;-85
2022/08/06 10:26:13;;;;;;;1.67;1.57;;;22.70;65.00;;;;;;5066632;28;21083;-84
2022/08/06 10:28:41;;;;;;;1.63;1.53;;;23.80;61.20;;;;;;5067674;28;20625;-85
2022/08/06 10:31:10;;;;;;;2.20;1.40;;;23.70;61.90;;;;;;5067458;28;20640;-84
2022/08/06 10:33:42;;;;;;;1.90;1.80;;;23.90;61.80;;;;;;5066319;28;21217;-84
2022/08/06 10:36:14;;;;;;;1.37;1.27;;;23.70;59.20;;;;;;5084283;28;20643;-86
2022/08/06 10:38:45;;;;;;;1.67;1.57;;;22.80;61.40;;;;;;5084203;28;20620;-84
2022/08/06 10:41:13;;;;;;;1.60;1.40;;;22.60;63.00;;;;;;5072367;28;20632;-83
2022/08/06 10:43:41;;;;;;;2.53;2.33;;;22.60;63.90;;;;;;5090899;28;20720;-85
2022/08/06 10:46:12;;;;;;;2.10;1.90;;;22.90;63.30;;;;;;5078828;28;20661;-85
2022/08/06 10:48:41;;;;;;;2.00;1.90;;;23.10;62.90;;;;;;5079674;28;20640;-86
2022/08/06 10:51:11;;;;;;;1.93;1.80;;;23.00;61.60;;;;;;5074293;28;20711;-85
2022/08/06 10:53:39;;;;;;;2.23;2.03;;;22.90;62.00;;;;;;5084585;28;20621;-85
2022/08/06 10:56:08;;;;;;;2.00;1.87;;;22.70;63.80;;;;;;5075035;28;20731;-85
2022/08/06 10:58:37;;;;;;;1.50;1.40;;;22.90;63.50;;;;;;5075749;28;21241;-84
2022/08/06 11:01:07;;;;;;;1.73;1.63;;;22.80;63.60;;;;;;5091464;28;20655;-85
2022/08/06 11:03:50;;;;;;;1.30;1.20;;;22.90;61.60;;;;;;5088175;28;21435;-85
2022/08/06 11:06:37;;;;;;;1.70;1.60;;;22.90;60.30;;;;;;5084496;28;20648;-85
2022/08/06 11:09:16;;;;;;;2.57;2.37;;;23.30;59.30;;;;;;5082457;28;20780;-85
2022/08/06 11:12:02;;;;;;;1.70;1.60;;;23.50;59.00;;;;;;5072892;28;20671;-85
2022/08/06 11:14:29;;;;;;;2.23;1.60;;;23.60;59.30;;;;;;5071422;28;20788;-85
2022/08/06 11:16:57;;;;;;;1.60;1.50;;;23.50;59.40;;;;;;5071504;28;20632;-85
2022/08/06 11:19:40;;;;;;;2.10;2.00;;;23.50;58.30;;;;;;5077458;28;20663;-84
2022/08/06 11:22:08;;;;;;;2.27;2.17;;;23.40;58.70;;;;;;5089608;28;20712;-85
2022/08/06 11:24:52;;;;;;;1.87;1.77;;;23.40;58.10;;;;;;5070437;28;21320;-85
2022/08/06 11:27:51;;;;;;;1.80;1.70;;;24.00;58.90;;;;;;5072196;28;20613;-86
2022/08/06 11:30:18;;;;;;;1.60;1.50;;;24.00;58.90;;;;;;5090222;28;20673;-86
2022/08/06 11:32:47;;;;;;;4.17;2.37;;;24.00;59.30;;;;;;5073477;28;20624;-86
2022/08/06 11:35:40;;;;;;;2.13;1.93;;;24.10;59.10;;;;;;5080696;28;20723;-85
2022/08/06 11:38:09;;;;;;;1.70;1.60;;;23.90;58.50;;;;;;5071872;28;20632;-85
2022/08/06 11:40:56;;;;;;;1.80;1.70;;;24.00;58.00;;;;;;5084961;28;20632;-86
2022/08/06 11:43:47;;;;;;;2.10;1.90;;;24.80;55.50;;;;;;5084259;28;21340;-85
2022/08/06 11:46:24;;;;;;;1.90;1.70;;;24.90;55.80;;;;;;5075041;28;20634;-85
2022/08/06 11:49:18;;;;;;;1.67;1.57;;;25.00;56.60;;;;;;5082294;28;20624;-85
2022/08/06 11:51:47;;;;;;;1.40;1.30;;;25.00;57.90;;;;;;5080392;28;21007;-84
2022/08/06 11:54:18;;;;;;;3.50;1.60;;;25.20;58.10;;;;;;5074071;28;20625;-85
2022/08/06 11:57:18;;;;;;;1.80;1.70;;;26.10;56.60;;;;;;5072895;28;20821;-84
2022/08/06 11:59:48;;;;;;;2.10;2.00;;;26.10;56.60;;;;;;5089675;28;20656;-85
2022/08/06 12:02:17;;;;;;;1.73;1.63;;;26.10;56.60;;;;;;5080914;28;20624;-86
2022/08/06 12:04:46;;;;;;;1.80;1.70;;;26.10;53.90;;;;;;5070617;28;20678;-84
2022/08/06 12:07:22;;;;;;;1.80;1.70;;;26.10;53.70;;;;;;5076288;28;20624;-86
2022/08/06 12:10:01;;;;;;;1.73;1.63;;;26.80;55.10;;;;;;5073091;28;21247;-85
2022/08/06 12:12:36;;;;;;;1.67;1.57;;;28.20;52.40;;;;;;5069225;28;20695;-85
2022/08/06 12:15:26;;;;;;;1.40;1.30;;;28.40;53.00;;;;;;5085864;28;20664;-86
2022/08/06 12:18:00;;;;;;;1.43;1.33;;;27.90;52.60;;;;;;5080908;28;20668;-86
2022/08/06 12:20:30;;;;;;;1.40;1.30;;;28.30;52.00;;;;;;5076518;28;20679;-85
2022/08/06 12:22:58;;;;;;;1.80;1.70;;;30.00;49.70;;;;;;5087556;28;21182;-85
2022/08/06 12:25:32;;;;;;;2.17;1.97;;;30.10;49.80;;;;;;5072448;28;20668;-85
2022/08/06 12:28:01;;;;;;;1.33;1.23;;;31.60;47.30;;;;;;5069293;28;20640;-85
2022/08/06 12:30:40;;;;;;;1.67;1.57;;;31.60;47.70;;;;;;5066147;28;20630;-85
2022/08/06 12:33:08;;;;;;;1.53;1.47;;;31.80;45.60;;;;;;5066220;28;21532;-84
2022/08/06 12:35:35;;;;;;;1.67;1.57;;;29.20;46.90;;;;;;5067961;28;20771;-85
2022/08/06 12:38:02;;;;;;;1.57;1.47;;;29.20;47.20;;;;;;5077858;28;20625;-85
2022/08/06 12:40:29;;;;;;;1.57;1.50;;;28.60;48.60;;;;;;5085781;28;20719;-84
2022/08/06 12:43:11;;;;;;;1.90;1.80;;;27.20;49.90;;;;;;5087770;28;20629;-85
2022/08/06 12:45:39;;;;;;;1.53;1.43;;;26.50;52.40;;;;;;5078610;28;20676;-84
2022/08/06 12:48:08;;;;;;;1.87;1.77;;;28.60;50.80;;;;;;5078010;28;20630;-84
2022/08/06 12:50:37;;;;;;;1.70;1.60;;;28.10;48.80;;;;;;5083294;28;21182;-84
2022/08/06 12:53:05;;;;;;;2.20;1.80;;;29.10;48.60;;;;;;5068557;28;20712;-86
2022/08/06 12:55:33;;;;;;;2.03;1.60;;;29.90;48.20;;;;;;5068777;28;20738;-85
2022/08/06 12:58:02;;;;;;;1.70;1.60;;;30.50;46.70;;;;;;5068551;28;20661;-86
2022/08/06 13:00:30;;;;;;;1.57;1.47;;;31.30;47.70;;;;;;5067992;28;20625;-85
2022/08/06 13:02:58;;;;;;;1.83;1.73;;;31.60;46.00;;;;;;5067518;28;21278;-84
2022/08/06 13:05:27;;;;;;;1.60;1.50;;;30.20;46.10;;;;;;5068401;28;20729;-87
2022/08/06 13:07:56;;;;;;;2.17;2.00;;;29.30;47.00;;;;;;5067981;28;20678;-84
2022/08/06 13:10:23;;;;;;;2.00;1.90;;;27.70;49.50;;;;;;5066693;28;21214;-86